createdAt,value
2018-11-11T00:00:58.787Z,3.30
2018-11-11T00:03:26.177Z,3.40
2018-11-11T00:05:53.565Z,3.40
2018-11-11T00:08:20.992Z,3.40
2018-11-11T00:10:48.398Z,3.40
2018-11-11T00:13:15.766Z,3.40
2018-11-11T00:15:43.158Z,3.40
2018-11-11T00:18:10.549Z,3.40
2018-11-11T00:20:37.970Z,3.40
2018-11-11T00:23:05.391Z,3.40
2018-11-11T00:25:33.054Z,3.40
2018-11-11T00:28:00.439Z,3.30
2018-11-11T00:30:27.790Z,3.40
2018-11-11T00:32:55.188Z,3.40
2018-11-11T00:35:22.544Z,3.40
2018-11-11T00:37:50.003Z,3.40
2018-11-11T00:40:17.387Z,3.40
2018-11-11T00:42:45.313Z,3.40
2018-11-11T00:45:13.608Z,3.30
2018-11-11T00:47:42.514Z,3.50
2018-11-11T00:50:16.483Z,3.60
2018-11-11T00:52:44.467Z,3.50
2018-11-11T00:55:13.589Z,3.50
2018-11-11T00:57:41.425Z,3.60
2018-11-11T01:00:11.861Z,3.60
2018-11-11T01:02:39.438Z,3.60
2018-11-11T01:05:07.572Z,3.60
2018-11-11T01:07:35.283Z,3.70
2018-11-11T01:10:02.960Z,3.70
2018-11-11T01:12:30.514Z,3.70
2018-11-11T01:14:57.869Z,3.70
2018-11-11T01:17:27.690Z,3.70
2018-11-11T01:19:55.093Z,3.80
2018-11-11T01:22:22.865Z,3.80
2018-11-11T01:24:50.245Z,3.80
2018-11-11T01:27:20.246Z,3.80
2018-11-11T01:29:54.895Z,3.80
2018-11-11T01:32:29.202Z,3.70
2018-11-11T01:34:56.962Z,3.70
2018-11-11T01:37:24.273Z,3.70
2018-11-11T01:39:51.657Z,3.80
2018-11-11T01:42:19.019Z,3.80
2018-11-11T01:44:46.397Z,3.90
2018-11-11T01:47:13.780Z,3.90
2018-11-11T01:49:41.213Z,4.00
2018-11-11T01:52:08.598Z,4.00
2018-11-11T01:54:35.987Z,4.00
2018-11-11T01:57:03.322Z,4.00
2018-11-11T01:59:30.698Z,4.10
2018-11-11T02:01:58.494Z,4.10
2018-11-11T02:04:25.882Z,4.10
2018-11-11T02:06:53.320Z,4.10
2018-11-11T02:09:20.695Z,4.10
2018-11-11T02:11:48.086Z,4.20
2018-11-11T02:14:15.432Z,4.20
2018-11-11T02:16:42.858Z,4.20
2018-11-11T02:19:10.258Z,4.30
2018-11-11T02:21:37.630Z,4.30
2018-11-11T02:24:04.949Z,4.30
2018-11-11T02:26:32.310Z,4.30
2018-11-11T02:28:59.658Z,4.30
2018-11-11T02:31:27.050Z,4.40
2018-11-11T02:33:54.377Z,4.40
2018-11-11T02:36:21.796Z,4.40
2018-11-11T02:38:49.144Z,4.50
2018-11-11T02:41:16.509Z,4.50
2018-11-11T02:43:43.887Z,4.50
2018-11-11T02:46:11.245Z,4.50
2018-11-11T02:48:38.614Z,4.40
2018-11-11T02:51:06.036Z,4.40
2018-11-11T02:53:33.424Z,4.40
2018-11-11T02:56:00.765Z,4.40
2018-11-11T02:58:28.111Z,4.40
2018-11-11T03:01:03.503Z,4.40
2018-11-11T03:03:32.794Z,4.40
2018-11-11T03:06:00.291Z,4.40
2018-11-11T03:11:05.094Z,4.40
2018-11-11T03:13:32.426Z,4.40
2018-11-11T03:15:59.783Z,4.30
2018-11-11T03:18:27.087Z,4.30
2018-11-11T03:20:54.423Z,4.30
2018-11-11T03:23:21.802Z,4.20
2018-11-11T03:25:49.212Z,4.20
2018-11-11T03:28:16.551Z,4.20
2018-11-11T03:30:43.900Z,4.20
2018-11-11T03:33:11.256Z,4.20
2018-11-11T03:35:38.618Z,4.10
2018-11-11T03:38:06.073Z,4.00
2018-11-11T03:40:33.426Z,3.90
2018-11-11T03:43:00.744Z,3.90
2018-11-11T03:45:28.151Z,3.90
2018-11-11T03:47:55.486Z,3.90
2018-11-11T03:50:22.868Z,3.80
2018-11-11T03:52:50.353Z,3.80
2018-11-11T03:55:17.844Z,3.80
2018-11-11T03:57:45.236Z,3.70
2018-11-11T04:00:13.781Z,3.70
2018-11-11T04:02:41.114Z,3.70
2018-11-11T04:05:09.370Z,3.70
2018-11-11T04:07:36.901Z,3.70
2018-11-11T04:10:05.800Z,3.70
2018-11-11T04:12:33.218Z,3.80
2018-11-11T04:15:00.781Z,3.70
2018-11-11T04:17:28.139Z,3.70
2018-11-11T04:19:55.483Z,3.70
2018-11-11T04:22:23.257Z,3.60
2018-11-11T04:24:51.728Z,3.50
2018-11-11T04:27:19.467Z,3.50
2018-11-11T04:29:46.854Z,3.50
2018-11-11T04:32:14.141Z,3.50
2018-11-11T04:34:42.429Z,3.50
2018-11-11T04:37:12.500Z,3.50
2018-11-11T04:39:40.338Z,3.60
2018-11-11T04:42:07.717Z,3.50
2018-11-11T04:44:36.305Z,3.50
2018-11-11T04:47:03.686Z,3.60
2018-11-11T04:49:30.988Z,3.50
2018-11-11T04:51:58.607Z,3.70
2018-11-11T04:54:25.949Z,3.50
2018-11-11T04:56:53.279Z,3.50
2018-11-11T04:59:20.803Z,3.50
2018-11-11T05:01:48.625Z,3.50
2018-11-11T05:04:15.987Z,3.40
2018-11-11T05:06:43.343Z,3.50
2018-11-11T05:09:12.262Z,3.50
2018-11-11T05:11:39.766Z,3.50
2018-11-11T05:14:07.177Z,3.40
2018-11-11T05:16:34.520Z,3.50
2018-11-11T05:19:01.933Z,3.50
2018-11-11T05:21:29.242Z,3.40
2018-11-11T05:23:56.626Z,3.40
2018-11-11T05:26:23.951Z,3.50
2018-11-11T05:28:51.298Z,3.50
2018-11-11T05:31:19.233Z,3.50
2018-11-11T05:33:46.521Z,3.50
2018-11-11T05:36:13.870Z,3.60
2018-11-11T05:38:41.307Z,3.40
2018-11-11T05:41:08.618Z,3.40
2018-11-11T05:43:36.013Z,3.40
2018-11-11T05:46:03.426Z,3.30
2018-11-11T05:48:30.785Z,3.40
2018-11-11T05:50:58.170Z,3.40
2018-11-11T05:53:25.556Z,3.40
2018-11-11T05:55:52.927Z,3.30
2018-11-11T05:58:20.326Z,3.30
2018-11-11T06:00:48.106Z,3.30
2018-11-11T06:03:15.465Z,3.30
2018-11-11T06:05:42.879Z,3.40
2018-11-11T06:08:10.274Z,3.30
2018-11-11T06:10:37.585Z,3.40
2018-11-11T06:13:04.970Z,3.40
2018-11-11T06:15:32.363Z,3.40
2018-11-11T06:17:59.677Z,3.40
2018-11-11T06:20:27.206Z,3.40
2018-11-11T06:22:55.668Z,3.50
2018-11-11T06:25:26.561Z,3.40
2018-11-11T06:27:54.056Z,3.40
2018-11-11T06:30:22.562Z,3.50
2018-11-11T06:32:49.958Z,3.50
2018-11-11T06:37:51.499Z,3.60
2018-11-11T06:40:18.813Z,3.60
2018-11-11T06:42:46.342Z,3.70
2018-11-11T06:45:14.645Z,3.70
2018-11-11T06:47:43.266Z,3.70
2018-11-11T06:50:11.555Z,3.80
2018-11-11T06:52:39.809Z,3.80
2018-11-11T06:55:09.111Z,3.90
2018-11-11T06:57:38.333Z,4.00
2018-11-11T07:00:07.262Z,4.10
2018-11-11T07:02:37.704Z,4.20
2018-11-11T07:05:06.111Z,4.30
2018-11-11T07:07:33.609Z,4.40
2018-11-11T07:10:01.046Z,4.50
2018-11-11T07:12:28.582Z,4.50
2018-11-11T07:14:55.898Z,4.60
2018-11-11T07:17:23.314Z,4.70
2018-11-11T07:19:50.712Z,4.90
2018-11-11T07:22:18.095Z,5.00
2018-11-11T07:24:45.737Z,5.10
2018-11-11T07:27:13.056Z,5.20
2018-11-11T07:29:40.364Z,5.40
2018-11-11T07:32:07.730Z,5.50
2018-11-11T07:34:35.045Z,5.60
2018-11-11T07:37:02.391Z,5.60
2018-11-11T07:39:29.843Z,5.70
2018-11-11T07:41:57.214Z,5.70
2018-11-11T07:44:24.618Z,5.80
2018-11-11T07:46:51.935Z,5.90
2018-11-11T07:49:19.507Z,6.10
2018-11-11T07:51:46.814Z,6.40
2018-11-11T07:54:14.480Z,6.70
2018-11-11T07:56:41.822Z,6.90
2018-11-11T07:59:09.274Z,7.10
2018-11-11T08:01:36.694Z,7.50
2018-11-11T08:04:04.029Z,8.10
2018-11-11T08:06:31.745Z,9.10
2018-11-11T08:08:59.048Z,10.70
2018-11-11T08:11:38.363Z,11.60
2018-11-11T08:14:05.977Z,12.40
2018-11-11T08:16:34.861Z,13.40
2018-11-11T08:19:06.338Z,13.40
2018-11-11T08:21:34.950Z,13.70
2018-11-11T08:24:03.013Z,15.00
2018-11-11T08:26:30.502Z,15.30
2018-11-11T08:28:58.569Z,15.80
2018-11-11T08:31:26.266Z,16.50
2018-11-11T08:33:53.601Z,17.90
2018-11-11T08:36:21.018Z,19.50
2018-11-11T08:38:48.409Z,20.80
2018-11-11T08:41:15.986Z,21.60
2018-11-11T08:43:43.350Z,22.20
2018-11-11T08:46:11.498Z,22.90
2018-11-11T08:48:39.194Z,23.40
2018-11-11T08:51:08.790Z,23.70
2018-11-11T08:53:36.525Z,24.60
2018-11-11T08:56:06.777Z,25.60
2018-11-11T09:01:11.232Z,26.80
2018-11-11T09:03:42.170Z,27.50
2018-11-11T09:06:11.131Z,28.20
2018-11-11T09:08:38.496Z,28.90
2018-11-11T09:11:09.921Z,29.30
2018-11-11T09:13:42.173Z,29.70
2018-11-11T09:16:29.529Z,30.00
2018-11-11T09:19:01.265Z,30.60
2018-11-11T09:21:29.163Z,31.30
2018-11-11T09:23:56.474Z,32.10
2018-11-11T09:26:23.854Z,33.10
2018-11-11T09:28:51.215Z,33.50
2018-11-11T09:31:18.555Z,33.80
2018-11-11T09:33:45.999Z,34.00
2018-11-11T09:36:13.550Z,34.30
2018-11-11T09:38:40.919Z,34.50
2018-11-11T09:41:08.777Z,34.50
2018-11-11T09:43:36.494Z,34.40
2018-11-11T09:46:03.964Z,34.60
2018-11-11T09:48:31.354Z,34.80
2018-11-11T09:50:58.731Z,35.00
2018-11-11T09:53:26.229Z,35.30
2018-11-11T09:55:53.581Z,35.40
2018-11-11T09:58:20.980Z,35.60
2018-11-11T10:00:50.414Z,35.90
2018-11-11T10:04:26.058Z,36.60
2018-11-11T10:06:59.251Z,37.10
2018-11-11T10:10:37.198Z,37.90
2018-11-11T10:13:17.423Z,38.50
2018-11-11T10:17:53.464Z,39.00
2018-11-11T10:20:40.601Z,39.00
2018-11-11T10:23:17.761Z,39.00
2018-11-11T10:26:08.657Z,40.00
2018-11-11T10:28:46.664Z,40.90
2018-11-11T10:31:19.745Z,41.70
2018-11-11T10:33:54.428Z,42.10
2018-11-11T10:36:26.449Z,41.70
2018-11-11T10:38:59.931Z,41.80
2018-11-11T10:41:36.207Z,42.20
2018-11-11T10:44:06.908Z,42.50
2018-11-11T10:47:05.629Z,42.90
2018-11-11T10:49:37.423Z,43.10
2018-11-11T10:52:05.057Z,43.60
2018-11-11T10:54:32.732Z,44.00
2018-11-11T10:57:00.057Z,44.30
2018-11-11T10:59:27.359Z,44.60
2018-11-11T11:02:03.797Z,44.40
2018-11-11T11:04:31.261Z,44.10
2018-11-11T11:07:04.186Z,43.70
2018-11-11T11:09:31.541Z,43.60
2018-11-11T11:11:58.877Z,43.50
2018-11-11T11:14:26.202Z,43.40
2018-11-11T11:16:53.512Z,42.80
2018-11-11T11:19:21.063Z,42.70
2018-11-11T11:21:50.312Z,42.50
2018-11-11T11:24:17.623Z,42.60
2018-11-11T11:26:44.943Z,42.90
2018-11-11T11:29:12.291Z,43.20
2018-11-11T11:31:39.805Z,43.30
2018-11-11T11:34:07.078Z,43.10
2018-11-11T11:36:34.447Z,43.10
2018-11-11T11:39:01.825Z,42.80
2018-11-11T11:41:29.201Z,42.90
2018-11-11T11:43:56.538Z,42.90
2018-11-11T11:46:23.899Z,42.70
2018-11-11T11:48:51.230Z,42.60
2018-11-11T11:51:19.405Z,42.60
2018-11-11T11:53:46.700Z,42.30
2018-11-11T11:56:14.108Z,42.20
2018-11-11T11:58:41.433Z,42.30
2018-11-11T12:01:09.134Z,42.50
2018-11-11T12:03:36.543Z,42.90
2018-11-11T12:06:03.948Z,43.40
2018-11-11T12:08:31.311Z,43.70
2018-11-11T12:10:58.637Z,43.60
2018-11-11T12:13:25.963Z,43.40
2018-11-11T12:18:32.494Z,42.40
2018-11-11T12:21:03.839Z,41.70
2018-11-11T12:23:33.894Z,39.30
2018-11-11T12:26:04.951Z,36.70
2018-11-11T12:28:35.212Z,35.80
2018-11-11T12:31:03.253Z,36.40
2018-11-11T12:33:33.607Z,37.60
2018-11-11T12:36:07.842Z,38.60
2018-11-11T12:38:36.050Z,39.20
2018-11-11T12:41:05.087Z,39.80
2018-11-11T12:43:33.225Z,38.90
2018-11-11T12:46:00.715Z,37.30
2018-11-11T12:48:28.106Z,37.60
2018-11-11T12:50:55.403Z,38.30
2018-11-11T12:53:25.185Z,38.80
2018-11-11T12:55:54.536Z,39.20
2018-11-11T12:58:24.196Z,39.10
2018-11-11T13:00:51.937Z,37.80
2018-11-11T13:03:19.478Z,37.00
2018-11-11T13:05:46.873Z,36.00
2018-11-11T13:08:14.252Z,34.20
2018-11-11T13:10:41.721Z,32.50
2018-11-11T13:13:09.216Z,31.10
2018-11-11T13:15:36.928Z,29.60
2018-11-11T13:18:04.804Z,28.30
2018-11-11T13:20:32.123Z,27.30
2018-11-11T13:22:59.516Z,26.50
2018-11-11T13:25:26.905Z,26.00
2018-11-11T13:28:00.984Z,25.90
2018-11-11T13:30:30.001Z,25.80
2018-11-11T13:32:57.496Z,26.60
2018-11-11T13:35:25.958Z,28.10
2018-11-11T13:37:53.829Z,29.10
2018-11-11T13:40:21.262Z,28.50
2018-11-11T13:42:48.554Z,27.10
2018-11-11T13:45:17.242Z,25.90
2018-11-11T13:47:45.753Z,26.00
2018-11-11T13:50:27.689Z,26.90
2018-11-11T13:52:55.007Z,28.10
2018-11-11T13:55:22.444Z,28.60
2018-11-11T13:57:50.056Z,28.50
2018-11-11T14:00:19.646Z,28.90
2018-11-11T14:02:47.438Z,28.90
2018-11-11T14:05:15.126Z,29.30
2018-11-11T14:07:42.504Z,29.50
2018-11-11T14:10:11.839Z,29.20
2018-11-11T14:12:39.484Z,29.10
2018-11-11T14:15:17.752Z,29.20
2018-11-11T14:17:45.812Z,29.30
2018-11-11T14:20:14.361Z,28.90
2018-11-11T14:22:42.804Z,27.70
2018-11-11T14:25:13.977Z,26.30
2018-11-11T14:27:41.379Z,24.90
2018-11-11T14:30:16.805Z,23.90
2018-11-11T14:32:44.652Z,23.10
2018-11-11T14:35:12.371Z,22.30
2018-11-11T14:40:16.383Z,21.00
2018-11-11T14:42:44.142Z,20.40
2018-11-11T14:45:12.657Z,19.80
2018-11-11T14:47:40.969Z,19.30
2018-11-11T14:50:09.567Z,18.80
2018-11-11T14:52:37.061Z,18.30
2018-11-11T14:55:13.098Z,18.10
2018-11-11T14:57:40.524Z,17.50
2018-11-11T15:00:10.668Z,16.90
2018-11-11T15:02:38.475Z,16.80
2018-11-11T15:05:07.716Z,16.50
2018-11-11T15:07:35.024Z,16.20
2018-11-11T15:10:02.525Z,15.90
2018-11-11T15:12:29.837Z,15.70
2018-11-11T15:14:57.163Z,15.50
2018-11-11T15:17:24.482Z,15.30
2018-11-11T15:22:25.569Z,15.00
2018-11-11T15:24:52.874Z,14.80
2018-11-11T15:27:20.194Z,14.60
2018-11-11T15:29:51.174Z,14.50
2018-11-11T15:32:18.558Z,14.30
2018-11-11T15:34:45.908Z,14.10
2018-11-11T15:37:13.231Z,14.00
2018-11-11T15:39:40.757Z,13.80
2018-11-11T15:42:08.184Z,13.60
2018-11-11T15:44:35.514Z,13.60
2018-11-11T15:47:02.821Z,13.50
2018-11-11T15:49:32.456Z,13.40
2018-11-11T15:52:09.616Z,13.20
2018-11-11T15:54:40.977Z,13.10
2018-11-11T15:57:11.075Z,13.00
2018-11-11T15:59:38.438Z,12.80
2018-11-11T16:02:11.301Z,12.80
2018-11-11T16:04:40.465Z,12.80
2018-11-11T16:07:10.986Z,12.70
2018-11-11T16:09:41.260Z,12.60
2018-11-11T16:12:08.998Z,12.60
2018-11-11T16:14:36.360Z,12.50
2018-11-11T16:17:03.953Z,12.40
2018-11-11T16:19:31.384Z,12.20
2018-11-11T16:21:58.962Z,12.10
2018-11-11T16:24:27.442Z,12.00
2018-11-11T16:27:02.973Z,11.70
2018-11-11T16:29:32.757Z,11.60
2018-11-11T16:32:01.803Z,11.30
2018-11-11T16:34:29.214Z,11.30
2018-11-11T16:36:56.615Z,11.20
2018-11-11T16:39:24.092Z,11.00
2018-11-11T16:41:51.527Z,10.80
2018-11-11T16:44:18.953Z,10.70
2018-11-11T16:46:46.914Z,10.60
2018-11-11T16:49:14.845Z,10.50
2018-11-11T16:51:42.172Z,10.30
2018-11-11T16:54:09.604Z,10.20
2018-11-11T16:56:36.928Z,10.10
2018-11-11T16:59:04.694Z,9.90
2018-11-11T17:01:32.026Z,9.80
2018-11-11T17:04:03.496Z,9.70
2018-11-11T17:06:30.861Z,9.60
2018-11-11T17:08:58.217Z,9.50
2018-11-11T17:11:25.944Z,9.40
2018-11-11T17:13:53.297Z,9.30
2018-11-11T17:16:20.890Z,9.20
2018-11-11T17:18:48.385Z,9.20
2018-11-11T17:21:17.311Z,9.10
2018-11-11T17:23:47.561Z,9.20
2018-11-11T17:26:14.974Z,9.00
2018-11-11T17:28:42.338Z,8.90
2018-11-11T17:31:09.742Z,8.80
2018-11-11T17:33:40.803Z,8.80
2018-11-11T17:36:09.118Z,8.70
2018-11-11T17:38:37.116Z,8.70
2018-11-11T17:44:09.342Z,8.50
2018-11-11T17:46:37.342Z,8.50
2018-11-11T17:49:06.456Z,8.50
2018-11-11T17:51:35.195Z,8.40
2018-11-11T17:54:02.742Z,8.30
2018-11-11T17:56:30.714Z,8.20
2018-11-11T17:58:58.066Z,8.10
2018-11-11T18:01:25.514Z,8.00
2018-11-11T18:03:53.194Z,8.00
2018-11-11T18:06:20.623Z,7.90
2018-11-11T18:08:48.080Z,7.90
2018-11-11T18:11:15.611Z,7.80
2018-11-11T18:13:42.975Z,7.80
2018-11-11T18:16:10.329Z,7.70
2018-11-11T18:18:38.202Z,7.70
2018-11-11T18:21:05.546Z,7.60
2018-11-11T18:23:32.975Z,7.60
2018-11-11T18:26:00.330Z,7.60
2018-11-11T18:28:27.693Z,7.60
2018-11-11T18:30:55.497Z,7.50
2018-11-11T18:33:23.157Z,7.50
2018-11-11T18:35:50.570Z,7.50
2018-11-11T18:38:17.947Z,7.40
2018-11-11T18:40:45.278Z,7.40
2018-11-11T18:43:12.599Z,7.30
2018-11-11T18:45:40.370Z,7.20
2018-11-11T18:48:07.792Z,7.10
2018-11-11T18:50:35.159Z,7.00
2018-11-11T18:53:03.201Z,6.90
2018-11-11T18:55:31.079Z,6.90
2018-11-11T18:57:58.488Z,6.90
2018-11-11T19:00:31.043Z,6.80
2018-11-11T19:03:02.863Z,6.90
2018-11-11T19:05:33.014Z,6.80
2018-11-11T19:08:00.605Z,6.80
2018-11-11T19:12:10.329Z,6.70
2018-11-11T19:14:37.822Z,6.70
2018-11-11T19:17:05.337Z,6.60
2018-11-11T19:19:32.721Z,6.60
2018-11-11T19:22:00.070Z,6.50
2018-11-11T19:24:27.459Z,6.50
2018-11-11T19:26:54.957Z,6.50
2018-11-11T19:29:22.353Z,6.50
2018-11-11T19:31:49.877Z,6.40
2018-11-11T19:34:17.524Z,6.40
2018-11-11T19:36:45.194Z,6.40
2018-11-11T19:39:13.384Z,6.40
2018-11-11T19:41:41.340Z,6.30
2018-11-11T19:44:09.222Z,6.20
2018-11-11T19:46:36.667Z,6.20
2018-11-11T19:49:04.219Z,6.10
2018-11-11T19:51:31.603Z,6.10
2018-11-11T19:53:59.607Z,6.00
2018-11-11T19:56:27.618Z,5.90
2018-11-11T19:58:54.942Z,5.90
2018-11-11T20:01:22.343Z,5.90
2018-11-11T20:03:50.067Z,5.80
2018-11-11T20:06:17.403Z,5.90
2018-11-11T20:11:26.962Z,5.70
2018-11-11T20:13:54.414Z,5.70
2018-11-11T20:16:28.629Z,5.70
2018-11-11T20:18:55.992Z,5.60
2018-11-11T20:21:23.342Z,5.60
2018-11-11T20:23:50.710Z,5.60
2018-11-11T20:26:18.049Z,5.60
2018-11-11T20:28:45.430Z,5.60
2018-11-11T20:31:12.860Z,5.60
2018-11-11T20:33:40.208Z,5.50
2018-11-11T20:36:07.888Z,5.50
2018-11-11T20:38:35.246Z,5.40
2018-11-11T20:41:02.637Z,5.40
2018-11-11T20:43:31.442Z,5.30
2018-11-11T20:45:58.943Z,5.30
2018-11-11T20:48:26.434Z,5.40
2018-11-11T20:50:54.159Z,5.30
2018-11-11T20:53:21.545Z,5.40
2018-11-11T20:55:48.934Z,5.50
2018-11-11T20:58:16.295Z,5.60
2018-11-11T21:00:43.641Z,5.60
2018-11-11T21:03:10.987Z,5.60
2018-11-11T21:05:38.277Z,5.70
2018-11-11T21:08:05.806Z,5.60
2018-11-11T21:10:33.221Z,5.50
2018-11-11T21:13:00.570Z,5.50
2018-11-11T21:15:29.166Z,5.50
2018-11-11T21:17:56.530Z,5.30
2018-11-11T21:20:28.193Z,5.30
2018-11-11T21:22:55.650Z,5.20
2018-11-11T21:25:23.437Z,5.20
2018-11-11T21:27:51.429Z,5.10
2018-11-11T21:30:21.985Z,5.20
2018-11-11T21:32:49.538Z,5.20
2018-11-11T21:35:16.921Z,5.30
2018-11-11T21:37:44.539Z,5.30
2018-11-11T21:40:13.939Z,5.30
2018-11-11T21:42:44.261Z,5.30
2018-11-11T21:45:12.939Z,5.20
2018-11-11T21:47:40.765Z,5.10
2018-11-11T21:50:09.919Z,5.10
2018-11-11T21:52:37.373Z,5.00
2018-11-11T21:55:06.908Z,5.00
2018-11-11T21:57:34.432Z,4.90
2018-11-11T22:00:01.821Z,4.80
2018-11-11T22:02:29.277Z,4.80
2018-11-11T22:04:56.622Z,4.80
2018-11-11T22:07:23.974Z,4.70
2018-11-11T22:09:51.784Z,4.80
2018-11-11T22:12:19.271Z,4.70
2018-11-11T22:14:46.627Z,4.70
2018-11-11T22:17:14.067Z,4.70
2018-11-11T22:19:41.384Z,4.60
2018-11-11T22:22:08.737Z,4.60
2018-11-11T22:24:37.283Z,4.60
2018-11-11T22:27:08.651Z,4.60
2018-11-11T22:29:37.133Z,4.60
2018-11-11T22:32:04.714Z,4.50
2018-11-11T22:34:32.346Z,4.40
2018-11-11T22:36:59.797Z,4.40
2018-11-11T22:39:27.220Z,4.40
2018-11-11T22:41:54.651Z,4.40
2018-11-11T22:44:22.074Z,4.40
2018-11-11T22:46:54.179Z,4.30
2018-11-11T22:49:21.594Z,4.30
2018-11-11T22:51:48.937Z,4.30
2018-11-11T22:56:49.758Z,4.10
2018-11-11T22:59:17.756Z,4.10
2018-11-11T23:01:45.089Z,4.10
2018-11-11T23:04:12.380Z,4.10
2018-11-11T23:06:39.786Z,4.00
2018-11-11T23:09:08.893Z,4.00
2018-11-11T23:11:36.294Z,4.00
2018-11-11T23:14:06.308Z,4.00
2018-11-11T23:16:33.720Z,3.90
2018-11-11T23:19:01.097Z,3.90
2018-11-11T23:21:29.069Z,3.90
2018-11-11T23:23:56.463Z,4.00
2018-11-11T23:26:23.844Z,3.90
2018-11-11T23:28:51.310Z,3.80
2018-11-11T23:31:18.695Z,3.80
2018-11-11T23:33:46.011Z,3.70
2018-11-11T23:36:13.370Z,3.70
2018-11-11T23:38:40.799Z,3.70
2018-11-11T23:41:08.106Z,3.70
2018-11-11T23:43:35.468Z,3.60
2018-11-11T23:46:02.867Z,3.60
2018-11-11T23:48:30.290Z,3.60
2018-11-11T23:50:57.916Z,3.60
2018-11-11T23:53:25.535Z,3.60
2018-11-11T23:55:52.928Z,3.60
2018-11-11T23:58:20.622Z,3.70
